Kansas City, Missouri
Traffic Map
Current Weather Conditions
Kansas City, Missouri
Broken Clouds Light Rain
Broken Clouds
73°
Feels Like: 73°
Wind Chill: 73° Ceiling: 800
Heat Index: 73° Visibility: 10mi
Dew Point: 71° Wind: 8mph
Humidity: 93% Direction: 330° (NNW)
Pressure: 30.1in Gusts: 0mph
Raw Report DataKMKC 291318Z 33007KT 10SM -RA BKN008 BKN019 BKN070 23/22 A3010 RMK AO2 P0000 T02280217
Traffic Incident Summary
Active as of:
Severity:
Category:
InformationThere was an issue retrieving the traffic information for this location. Please try a different location or try again shortly.
Advertisements
Track Severe Weather on mobile